sensor_id;sensor_type;location;lat;lon;timestamp;P1;durP1;ratioP1;P2;durP2;ratioP2
40623;SDS011;26325;48.594;11.650;2024-03-08T00:00:11;15.93;;;13.40;;
40623;SDS011;26325;48.594;11.650;2024-03-08T00:02:40;16.25;;;14.43;;
40623;SDS011;26325;48.594;11.650;2024-03-08T00:05:07;17.95;;;14.07;;
40623;SDS011;26325;48.594;11.650;2024-03-08T00:07:40;14.77;;;12.63;;
40623;SDS011;26325;48.594;11.650;2024-03-08T00:10:10;16.95;;;13.65;;
40623;SDS011;26325;48.594;11.650;2024-03-08T00:12:41;16.38;;;13.18;;
40623;SDS011;26325;48.594;11.650;2024-03-08T00:15:15;17.35;;;13.98;;
40623;SDS011;26325;48.594;11.650;2024-03-08T00:17:42;15.88;;;13.40;;
40623;SDS011;26325;48.594;11.650;2024-03-08T00:20:09;16.27;;;14.18;;
40623;SDS011;26325;48.594;11.650;2024-03-08T00:22:35;16.00;;;12.80;;
40623;SDS011;26325;48.594;11.650;2024-03-08T00:25:05;17.55;;;13.73;;
40623;SDS011;26325;48.594;11.650;2024-03-08T00:27:35;16.35;;;14.00;;
40623;SDS011;26325;48.594;11.650;2024-03-08T00:30:02;16.85;;;14.13;;
40623;SDS011;26325;48.594;11.650;2024-03-08T00:32:29;16.45;;;13.70;;
40623;SDS011;26325;48.594;11.650;2024-03-08T00:34:57;17.45;;;14.68;;
40623;SDS011;26325;48.594;11.650;2024-03-08T00:37:25;16.75;;;13.27;;
40623;SDS011;26325;48.594;11.650;2024-03-08T00:39:51;16.63;;;13.88;;
40623;SDS011;26325;48.594;11.650;2024-03-08T00:42:17;18.35;;;14.10;;
40623;SDS011;26325;48.594;11.650;2024-03-08T00:44:43;15.88;;;13.40;;
40623;SDS011;26325;48.594;11.650;2024-03-08T00:47:09;16.33;;;14.00;;
40623;SDS011;26325;48.594;11.650;2024-03-08T00:49:35;18.25;;;14.77;;
40623;SDS011;26325;48.594;11.650;2024-03-08T00:52:04;16.15;;;14.02;;
40623;SDS011;26325;48.594;11.650;2024-03-08T00:54:35;16.77;;;13.98;;
40623;SDS011;26325;48.594;11.650;2024-03-08T00:57:04;17.42;;;14.18;;
40623;SDS011;26325;48.594;11.650;2024-03-08T00:59:30;16.88;;;14.50;;
40623;SDS011;26325;48.594;11.650;2024-03-08T01:01:58;19.45;;;14.27;;
40623;SDS011;26325;48.594;11.650;2024-03-08T01:04:25;17.48;;;13.93;;
40623;SDS011;26325;48.594;11.650;2024-03-08T01:06:54;16.52;;;14.38;;
40623;SDS011;26325;48.594;11.650;2024-03-08T01:09:22;17.30;;;14.07;;
40623;SDS011;26325;48.594;11.650;2024-03-08T01:11:51;17.73;;;14.13;;
40623;SDS011;26325;48.594;11.650;2024-03-08T01:14:19;16.50;;;13.80;;
40623;SDS011;26325;48.594;11.650;2024-03-08T01:16:48;16.85;;;14.65;;
40623;SDS011;26325;48.594;11.650;2024-03-08T01:19:14;19.27;;;15.60;;
40623;SDS011;26325;48.594;11.650;2024-03-08T01:21:43;18.23;;;14.77;;
40623;SDS011;26325;48.594;11.650;2024-03-08T01:24:08;16.42;;;13.93;;
40623;SDS011;26325;48.594;11.650;2024-03-08T01:26:34;18.92;;;13.75;;
40623;SDS011;26325;48.594;11.650;2024-03-08T01:29:03;16.95;;;14.20;;
40623;SDS011;26325;48.594;11.650;2024-03-08T01:31:29;16.98;;;14.50;;
40623;SDS011;26325;48.594;11.650;2024-03-08T01:33:56;16.60;;;14.25;;
40623;SDS011;26325;48.594;11.650;2024-03-08T01:36:24;16.85;;;14.23;;
40623;SDS011;26325;48.594;11.650;2024-03-08T01:38:51;18.27;;;15.15;;
40623;SDS011;26325;48.594;11.650;2024-03-08T01:41:19;19.65;;;15.02;;
40623;SDS011;26325;48.594;11.650;2024-03-08T01:43:47;16.98;;;14.43;;
40623;SDS011;26325;48.594;11.650;2024-03-08T01:46:17;17.98;;;14.75;;
40623;SDS011;26325;48.594;11.650;2024-03-08T01:48:47;17.42;;;15.27;;
40623;SDS011;26325;48.594;11.650;2024-03-08T01:51:14;17.60;;;15.10;;
40623;SDS011;26325;48.594;11.650;2024-03-08T01:53:43;16.42;;;14.60;;
40623;SDS011;26325;48.594;11.650;2024-03-08T01:56:11;19.63;;;14.73;;
40623;SDS011;26325;48.594;11.650;2024-03-08T01:58:38;18.02;;;14.50;;
40623;SDS011;26325;48.594;11.650;2024-03-08T02:01:03;17.80;;;14.70;;
40623;SDS011;26325;48.594;11.650;2024-03-08T02:03:30;17.77;;;14.50;;
40623;SDS011;26325;48.594;11.650;2024-03-08T02:05:56;18.27;;;14.68;;
40623;SDS011;26325;48.594;11.650;2024-03-08T02:08:24;18.25;;;15.23;;
40623;SDS011;26325;48.594;11.650;2024-03-08T02:10:50;17.70;;;14.93;;
40623;SDS011;26325;48.594;11.650;2024-03-08T02:13:16;17.83;;;15.15;;
40623;SDS011;26325;48.594;11.650;2024-03-08T02:15:58;17.55;;;14.52;;
40623;SDS011;26325;48.594;11.650;2024-03-08T02:18:25;17.80;;;14.50;;
40623;SDS011;26325;48.594;11.650;2024-03-08T02:20:55;18.10;;;15.52;;
40623;SDS011;26325;48.594;11.650;2024-03-08T02:23:21;17.15;;;14.30;;
40623;SDS011;26325;48.594;11.650;2024-03-08T02:25:48;18.75;;;14.60;;
40623;SDS011;26325;48.594;11.650;2024-03-08T02:28:14;20.83;;;15.60;;
40623;SDS011;26325;48.594;11.650;2024-03-08T02:30:40;18.67;;;14.63;;
40623;SDS011;26325;48.594;11.650;2024-03-08T02:33:07;19.52;;;16.23;;
40623;SDS011;26325;48.594;11.650;2024-03-08T02:35:35;18.85;;;14.82;;
40623;SDS011;26325;48.594;11.650;2024-03-08T02:38:02;19.23;;;15.38;;
40623;SDS011;26325;48.594;11.650;2024-03-08T02:40:29;19.42;;;15.63;;
40623;SDS011;26325;48.594;11.650;2024-03-08T02:42:55;20.55;;;16.38;;
40623;SDS011;26325;48.594;11.650;2024-03-08T02:45:20;19.60;;;16.48;;
40623;SDS011;26325;48.594;11.650;2024-03-08T02:47:46;19.00;;;15.18;;
40623;SDS011;26325;48.594;11.650;2024-03-08T02:50:14;17.88;;;14.93;;
40623;SDS011;26325;48.594;11.650;2024-03-08T02:52:42;20.23;;;16.02;;
40623;SDS011;26325;48.594;11.650;2024-03-08T02:55:11;19.00;;;15.95;;
40623;SDS011;26325;48.594;11.650;2024-03-08T02:57:40;20.77;;;16.95;;
40623;SDS011;26325;48.594;11.650;2024-03-08T03:00:07;21.40;;;17.38;;
40623;SDS011;26325;48.594;11.650;2024-03-08T03:02:53;21.52;;;17.05;;
40623;SDS011;26325;48.594;11.650;2024-03-08T03:05:22;20.90;;;16.90;;
40623;SDS011;26325;48.594;11.650;2024-03-08T03:07:48;22.35;;;17.42;;
40623;SDS011;26325;48.594;11.650;2024-03-08T03:10:14;21.13;;;17.30;;
40623;SDS011;26325;48.594;11.650;2024-03-08T03:12:46;21.38;;;16.45;;
40623;SDS011;26325;48.594;11.650;2024-03-08T03:15:13;21.48;;;17.20;;
40623;SDS011;26325;48.594;11.650;2024-03-08T03:17:45;21.98;;;18.00;;
40623;SDS011;26325;48.594;11.650;2024-03-08T03:20:16;23.75;;;17.50;;
40623;SDS011;26325;48.594;11.650;2024-03-08T03:22:49;21.08;;;17.17;;
40623;SDS011;26325;48.594;11.650;2024-03-08T03:25:21;22.23;;;17.80;;
40623;SDS011;26325;48.594;11.650;2024-03-08T03:27:53;21.30;;;17.55;;
40623;SDS011;26325;48.594;11.650;2024-03-08T03:30:22;23.70;;;17.48;;
40623;SDS011;26325;48.594;11.650;2024-03-08T03:33:01;21.73;;;17.17;;
40623;SDS011;26325;48.594;11.650;2024-03-08T03:35:28;21.85;;;17.63;;
40623;SDS011;26325;48.594;11.650;2024-03-08T03:37:54;23.27;;;17.85;;
40623;SDS011;26325;48.594;11.650;2024-03-08T03:40:33;24.17;;;19.15;;
40623;SDS011;26325;48.594;11.650;2024-03-08T03:43:01;23.40;;;17.58;;
40623;SDS011;26325;48.594;11.650;2024-03-08T03:45:31;23.52;;;19.02;;
40623;SDS011;26325;48.594;11.650;2024-03-08T03:48:03;22.95;;;17.80;;
40623;SDS011;26325;48.594;11.650;2024-03-08T03:50:29;25.42;;;19.17;;
40623;SDS011;26325;48.594;11.650;2024-03-08T03:52:55;23.85;;;18.85;;
40623;SDS011;26325;48.594;11.650;2024-03-08T03:55:21;23.63;;;18.45;;
40623;SDS011;26325;48.594;11.650;2024-03-08T03:57:47;23.30;;;19.50;;
40623;SDS011;26325;48.594;11.650;2024-03-08T04:00:13;25.65;;;19.27;;
40623;SDS011;26325;48.594;11.650;2024-03-08T04:02:39;24.08;;;19.83;;
40623;SDS011;26325;48.594;11.650;2024-03-08T04:05:06;24.00;;;18.80;;
40623;SDS011;26325;48.594;11.650;2024-03-08T04:07:33;25.42;;;19.48;;
40623;SDS011;26325;48.594;11.650;2024-03-08T04:10:03;23.08;;;18.90;;
40623;SDS011;26325;48.594;11.650;2024-03-08T04:12:31;25.58;;;18.92;;
40623;SDS011;26325;48.594;11.650;2024-03-08T04:14:58;22.75;;;19.17;;
40623;SDS011;26325;48.594;11.650;2024-03-08T04:17:23;24.13;;;19.15;;
40623;SDS011;26325;48.594;11.650;2024-03-08T04:19:52;25.42;;;20.45;;
40623;SDS011;26325;48.594;11.650;2024-03-08T04:22:18;26.55;;;21.27;;
40623;SDS011;26325;48.594;11.650;2024-03-08T04:24:46;24.67;;;19.52;;
40623;SDS011;26325;48.594;11.650;2024-03-08T04:27:12;25.95;;;20.65;;
40623;SDS011;26325;48.594;11.650;2024-03-08T04:29:39;23.52;;;19.58;;
40623;SDS011;26325;48.594;11.650;2024-03-08T04:32:06;26.33;;;20.42;;
40623;SDS011;26325;48.594;11.650;2024-03-08T04:34:34;24.95;;;20.33;;
40623;SDS011;26325;48.594;11.650;2024-03-08T04:37:01;30.13;;;21.67;;
40623;SDS011;26325;48.594;11.650;2024-03-08T04:39:27;26.95;;;20.08;;
40623;SDS011;26325;48.594;11.650;2024-03-08T04:42:01;26.73;;;20.13;;
40623;SDS011;26325;48.594;11.650;2024-03-08T04:44:30;28.52;;;21.45;;
40623;SDS011;26325;48.594;11.650;2024-03-08T04:46:58;27.30;;;20.88;;
40623;SDS011;26325;48.594;11.650;2024-03-08T04:49:25;28.02;;;20.55;;
40623;SDS011;26325;48.594;11.650;2024-03-08T04:51:50;26.50;;;19.80;;
40623;SDS011;26325;48.594;11.650;2024-03-08T04:54:16;25.13;;;18.92;;
40623;SDS011;26325;48.594;11.650;2024-03-08T04:56:50;25.90;;;20.40;;
40623;SDS011;26325;48.594;11.650;2024-03-08T04:59:15;26.60;;;20.73;;
40623;SDS011;26325;48.594;11.650;2024-03-08T05:01:41;28.20;;;21.10;;
40623;SDS011;26325;48.594;11.650;2024-03-08T05:04:08;27.67;;;20.85;;
40623;SDS011;26325;48.594;11.650;2024-03-08T05:06:33;28.27;;;21.08;;
40623;SDS011;26325;48.594;11.650;2024-03-08T05:09:02;26.05;;;20.63;;
40623;SDS011;26325;48.594;11.650;2024-03-08T05:11:47;26.92;;;20.13;;
40623;SDS011;26325;48.594;11.650;2024-03-08T05:14:15;27.17;;;20.70;;
40623;SDS011;26325;48.594;11.650;2024-03-08T05:16:46;27.70;;;21.88;;
40623;SDS011;26325;48.594;11.650;2024-03-08T05:19:21;27.13;;;21.33;;
40623;SDS011;26325;48.594;11.650;2024-03-08T05:21:47;29.52;;;22.67;;
40623;SDS011;26325;48.594;11.650;2024-03-08T05:24:16;29.75;;;21.60;;
40623;SDS011;26325;48.594;11.650;2024-03-08T05:26:51;29.73;;;21.15;;
40623;SDS011;26325;48.594;11.650;2024-03-08T05:29:18;29.40;;;21.25;;
40623;SDS011;26325;48.594;11.650;2024-03-08T05:31:48;30.73;;;22.15;;
40623;SDS011;26325;48.594;11.650;2024-03-08T05:34:15;30.80;;;22.58;;
40623;SDS011;26325;48.594;11.650;2024-03-08T05:36:42;31.73;;;22.85;;
40623;SDS011;26325;48.594;11.650;2024-03-08T05:39:20;33.17;;;23.63;;
40623;SDS011;26325;48.594;11.650;2024-03-08T05:42:00;31.48;;;22.95;;
40623;SDS011;26325;48.594;11.650;2024-03-08T05:44:25;33.33;;;24.10;;
40623;SDS011;26325;48.594;11.650;2024-03-08T05:46:59;34.17;;;23.38;;
40623;SDS011;26325;48.594;11.650;2024-03-08T05:49:25;32.47;;;23.08;;
40623;SDS011;26325;48.594;11.650;2024-03-08T05:51:51;31.85;;;22.83;;
40623;SDS011;26325;48.594;11.650;2024-03-08T05:54:16;34.72;;;24.15;;
40623;SDS011;26325;48.594;11.650;2024-03-08T05:56:53;32.67;;;23.38;;
40623;SDS011;26325;48.594;11.650;2024-03-08T05:59:27;33.20;;;24.15;;
40623;SDS011;26325;48.594;11.650;2024-03-08T06:01:57;32.42;;;23.02;;
40623;SDS011;26325;48.594;11.650;2024-03-08T06:04:24;31.13;;;22.63;;
40623;SDS011;26325;48.594;11.650;2024-03-08T06:06:51;30.88;;;22.15;;
40623;SDS011;26325;48.594;11.650;2024-03-08T06:09:17;33.38;;;24.52;;
40623;SDS011;26325;48.594;11.650;2024-03-08T06:11:48;36.00;;;25.20;;
40623;SDS011;26325;48.594;11.650;2024-03-08T06:14:14;32.20;;;24.17;;
40623;SDS011;26325;48.594;11.650;2024-03-08T06:16:50;31.50;;;23.48;;
40623;SDS011;26325;48.594;11.650;2024-03-08T06:19:18;33.15;;;23.98;;
40623;SDS011;26325;48.594;11.650;2024-03-08T06:21:44;36.22;;;25.13;;
40623;SDS011;26325;48.594;11.650;2024-03-08T06:24:11;32.65;;;24.92;;
40623;SDS011;26325;48.594;11.650;2024-03-08T06:26:37;32.58;;;24.48;;
40623;SDS011;26325;48.594;11.650;2024-03-08T06:29:06;33.55;;;24.83;;
40623;SDS011;26325;48.594;11.650;2024-03-08T06:31:35;32.33;;;24.38;;
40623;SDS011;26325;48.594;11.650;2024-03-08T06:34:04;32.88;;;24.70;;
40623;SDS011;26325;48.594;11.650;2024-03-08T06:36:36;30.02;;;23.02;;
40623;SDS011;26325;48.594;11.650;2024-03-08T06:39:03;30.02;;;23.58;;
40623;SDS011;26325;48.594;11.650;2024-03-08T06:41:35;29.70;;;22.92;;
40623;SDS011;26325;48.594;11.650;2024-03-08T06:44:11;28.17;;;21.88;;
40623;SDS011;26325;48.594;11.650;2024-03-08T06:46:38;28.75;;;23.20;;
40623;SDS011;26325;48.594;11.650;2024-03-08T06:49:04;29.92;;;25.38;;
40623;SDS011;26325;48.594;11.650;2024-03-08T06:51:34;28.58;;;23.98;;
40623;SDS011;26325;48.594;11.650;2024-03-08T06:54:00;29.13;;;22.90;;
40623;SDS011;26325;48.594;11.650;2024-03-08T06:56:25;28.25;;;23.23;;
40623;SDS011;26325;48.594;11.650;2024-03-08T06:58:51;28.50;;;23.42;;
40623;SDS011;26325;48.594;11.650;2024-03-08T07:01:17;29.40;;;25.48;;
40623;SDS011;26325;48.594;11.650;2024-03-08T07:03:42;25.73;;;22.35;;
40623;SDS011;26325;48.594;11.650;2024-03-08T07:06:10;25.60;;;22.83;;
40623;SDS011;26325;48.594;11.650;2024-03-08T07:08:36;27.58;;;24.02;;
40623;SDS011;26325;48.594;11.650;2024-03-08T07:11:02;26.15;;;22.98;;
40623;SDS011;26325;48.594;11.650;2024-03-08T07:13:28;26.77;;;23.35;;
40623;SDS011;26325;48.594;11.650;2024-03-08T07:15:54;26.88;;;23.70;;
40623;SDS011;26325;48.594;11.650;2024-03-08T07:18:20;26.25;;;23.45;;
40623;SDS011;26325;48.594;11.650;2024-03-08T07:20:47;25.58;;;22.38;;
40623;SDS011;26325;48.594;11.650;2024-03-08T07:23:14;26.65;;;23.75;;
40623;SDS011;26325;48.594;11.650;2024-03-08T07:26:00;24.50;;;21.90;;
40623;SDS011;26325;48.594;11.650;2024-03-08T07:28:26;26.35;;;23.65;;
40623;SDS011;26325;48.594;11.650;2024-03-08T07:30:52;22.77;;;20.38;;
40623;SDS011;26325;48.594;11.650;2024-03-08T07:33:26;27.73;;;24.75;;
40623;SDS011;26325;48.594;11.650;2024-03-08T07:35:52;26.05;;;23.25;;
40623;SDS011;26325;48.594;11.650;2024-03-08T07:38:18;26.20;;;23.40;;
40623;SDS011;26325;48.594;11.650;2024-03-08T07:40:48;26.40;;;23.52;;
40623;SDS011;26325;48.594;11.650;2024-03-08T07:43:16;26.33;;;23.52;;
40623;SDS011;26325;48.594;11.650;2024-03-08T07:45:41;26.55;;;23.65;;
40623;SDS011;26325;48.594;11.650;2024-03-08T07:50:38;26.55;;;22.25;;
40623;SDS011;26325;48.594;11.650;2024-03-08T07:53:05;25.40;;;21.77;;
40623;SDS011;26325;48.594;11.650;2024-03-08T07:55:35;24.90;;;22.23;;
40623;SDS011;26325;48.594;11.650;2024-03-08T07:58:02;26.02;;;22.20;;
40623;SDS011;26325;48.594;11.650;2024-03-08T08:00:28;25.33;;;21.58;;
40623;SDS011;26325;48.594;11.650;2024-03-08T08:02:58;27.85;;;23.00;;
40623;SDS011;26325;48.594;11.650;2024-03-08T08:05:24;25.38;;;21.63;;
40623;SDS011;26325;48.594;11.650;2024-03-08T08:07:49;27.40;;;22.25;;
40623;SDS011;26325;48.594;11.650;2024-03-08T08:10:17;24.25;;;21.65;;
40623;SDS011;26325;48.594;11.650;2024-03-08T08:12:50;25.45;;;22.75;;
40623;SDS011;26325;48.594;11.650;2024-03-08T08:15:18;25.77;;;22.45;;
40623;SDS011;26325;48.594;11.650;2024-03-08T08:17:45;27.92;;;23.23;;
40623;SDS011;26325;48.594;11.650;2024-03-08T08:20:12;25.80;;;22.23;;
40623;SDS011;26325;48.594;11.650;2024-03-08T08:22:42;23.50;;;20.70;;
40623;SDS011;26325;48.594;11.650;2024-03-08T08:25:08;25.35;;;22.33;;
40623;SDS011;26325;48.594;11.650;2024-03-08T08:27:34;24.55;;;21.90;;
40623;SDS011;26325;48.594;11.650;2024-03-08T08:30:02;23.58;;;21.13;;
40623;SDS011;26325;48.594;11.650;2024-03-08T08:32:33;25.40;;;21.83;;
40623;SDS011;26325;48.594;11.650;2024-03-08T08:35:00;24.52;;;21.58;;
40623;SDS011;26325;48.594;11.650;2024-03-08T08:37:30;24.52;;;21.30;;
40623;SDS011;26325;48.594;11.650;2024-03-08T08:39:56;24.73;;;21.23;;
40623;SDS011;26325;48.594;11.650;2024-03-08T08:42:23;23.95;;;20.88;;
40623;SDS011;26325;48.594;11.650;2024-03-08T08:44:49;22.95;;;20.55;;
40623;SDS011;26325;48.594;11.650;2024-03-08T08:47:16;24.60;;;20.73;;
40623;SDS011;26325;48.594;11.650;2024-03-08T08:49:47;25.60;;;21.27;;
40623;SDS011;26325;48.594;11.650;2024-03-08T08:52:16;22.75;;;20.20;;
40623;SDS011;26325;48.594;11.650;2024-03-08T08:54:42;23.92;;;20.60;;
40623;SDS011;26325;48.594;11.650;2024-03-08T08:57:10;22.83;;;20.38;;
40623;SDS011;26325;48.594;11.650;2024-03-08T08:59:35;24.00;;;20.10;;
40623;SDS011;26325;48.594;11.650;2024-03-08T09:02:02;22.85;;;19.50;;
40623;SDS011;26325;48.594;11.650;2024-03-08T09:04:29;22.38;;;19.98;;
40623;SDS011;26325;48.594;11.650;2024-03-08T09:06:56;23.20;;;20.70;;
40623;SDS011;26325;48.594;11.650;2024-03-08T09:09:22;23.13;;;20.25;;
40623;SDS011;26325;48.594;11.650;2024-03-08T09:11:48;21.40;;;19.08;;
40623;SDS011;26325;48.594;11.650;2024-03-08T09:14:19;22.60;;;18.92;;
40623;SDS011;26325;48.594;11.650;2024-03-08T09:16:45;22.95;;;19.65;;
40623;SDS011;26325;48.594;11.650;2024-03-08T09:19:12;21.92;;;19.58;;
40623;SDS011;26325;48.594;11.650;2024-03-08T09:21:38;21.88;;;19.00;;
40623;SDS011;26325;48.594;11.650;2024-03-08T09:24:05;22.13;;;19.55;;
40623;SDS011;26325;48.594;11.650;2024-03-08T09:26:32;23.40;;;19.38;;
40623;SDS011;26325;48.594;11.650;2024-03-08T09:29:00;21.17;;;18.90;;
40623;SDS011;26325;48.594;11.650;2024-03-08T09:31:25;20.98;;;18.85;;
40623;SDS011;26325;48.594;11.650;2024-03-08T09:33:51;21.38;;;18.90;;
40623;SDS011;26325;48.594;11.650;2024-03-08T09:36:19;21.30;;;19.10;;
40623;SDS011;26325;48.594;11.650;2024-03-08T09:38:45;22.17;;;18.63;;
40623;SDS011;26325;48.594;11.650;2024-03-08T09:41:14;21.52;;;18.88;;
40623;SDS011;26325;48.594;11.650;2024-03-08T09:43:40;19.50;;;17.40;;
40623;SDS011;26325;48.594;11.650;2024-03-08T09:46:06;20.08;;;18.08;;
40623;SDS011;26325;48.594;11.650;2024-03-08T09:48:33;19.42;;;17.42;;
40623;SDS011;26325;48.594;11.650;2024-03-08T09:51:00;18.38;;;16.52;;
40623;SDS011;26325;48.594;11.650;2024-03-08T09:53:25;19.77;;;17.67;;
40623;SDS011;26325;48.594;11.650;2024-03-08T09:55:54;19.42;;;17.40;;
40623;SDS011;26325;48.594;11.650;2024-03-08T09:58:20;19.52;;;17.42;;
40623;SDS011;26325;48.594;11.650;2024-03-08T10:00:57;17.52;;;15.70;;
40623;SDS011;26325;48.594;11.650;2024-03-08T10:03:23;19.50;;;17.50;;
40623;SDS011;26325;48.594;11.650;2024-03-08T10:05:51;19.40;;;17.27;;
40623;SDS011;26325;48.594;11.650;2024-03-08T10:08:17;19.73;;;17.65;;
40623;SDS011;26325;48.594;11.650;2024-03-08T10:10:42;18.65;;;16.77;;
40623;SDS011;26325;48.594;11.650;2024-03-08T10:13:10;18.88;;;16.88;;
40623;SDS011;26325;48.594;11.650;2024-03-08T10:15:38;17.58;;;15.85;;
40623;SDS011;26325;48.594;11.650;2024-03-08T10:18:07;18.23;;;16.42;;
40623;SDS011;26325;48.594;11.650;2024-03-08T10:20:33;17.95;;;16.08;;
40623;SDS011;26325;48.594;11.650;2024-03-08T10:23:04;17.40;;;15.68;;
40623;SDS011;26325;48.594;11.650;2024-03-08T10:25:34;18.45;;;16.48;;
40623;SDS011;26325;48.594;11.650;2024-03-08T10:28:00;17.75;;;15.95;;
40623;SDS011;26325;48.594;11.650;2024-03-08T10:30:29;17.52;;;15.82;;
40623;SDS011;26325;48.594;11.650;2024-03-08T10:32:55;18.17;;;16.27;;
40623;SDS011;26325;48.594;11.650;2024-03-08T10:35:23;17.70;;;15.57;;
40623;SDS011;26325;48.594;11.650;2024-03-08T10:37:53;18.65;;;16.75;;
40623;SDS011;26325;48.594;11.650;2024-03-08T10:40:27;18.08;;;16.25;;
40623;SDS011;26325;48.594;11.650;2024-03-08T10:42:58;17.67;;;15.55;;
40623;SDS011;26325;48.594;11.650;2024-03-08T10:47:57;17.83;;;16.02;;
40623;SDS011;26325;48.594;11.650;2024-03-08T10:51:00;17.70;;;16.00;;
40623;SDS011;26325;48.594;11.650;2024-03-08T10:53:28;18.40;;;16.42;;
40623;SDS011;26325;48.594;11.650;2024-03-08T10:55:59;18.10;;;16.20;;
40623;SDS011;26325;48.594;11.650;2024-03-08T10:58:26;16.73;;;15.02;;
40623;SDS011;26325;48.594;11.650;2024-03-08T11:00:54;16.63;;;14.98;;
40623;SDS011;26325;48.594;11.650;2024-03-08T11:03:43;16.75;;;15.18;;
40623;SDS011;26325;48.594;11.650;2024-03-08T11:06:30;16.52;;;14.88;;
40623;SDS011;26325;48.594;11.650;2024-03-08T11:09:02;16.40;;;14.73;;
40623;SDS011;26325;48.594;11.650;2024-03-08T11:11:32;17.27;;;15.57;;
40623;SDS011;26325;48.594;11.650;2024-03-08T11:14:04;16.83;;;15.13;;
40623;SDS011;26325;48.594;11.650;2024-03-08T11:19:23;17.77;;;16.00;;
40623;SDS011;26325;48.594;11.650;2024-03-08T11:22:28;16.10;;;14.50;;
40623;SDS011;26325;48.594;11.650;2024-03-08T11:25:04;16.00;;;14.40;;
40623;SDS011;26325;48.594;11.650;2024-03-08T11:27:38;15.65;;;14.05;;
40623;SDS011;26325;48.594;11.650;2024-03-08T11:30:05;15.80;;;14.10;;
40623;SDS011;26325;48.594;11.650;2024-03-08T11:32:38;15.68;;;14.18;;
40623;SDS011;26325;48.594;11.650;2024-03-08T11:35:07;15.40;;;13.80;;
40623;SDS011;26325;48.594;11.650;2024-03-08T11:37:34;14.85;;;13.55;;
40623;SDS011;26325;48.594;11.650;2024-03-08T11:40:01;15.77;;;14.27;;
40623;SDS011;26325;48.594;11.650;2024-03-08T11:42:30;14.10;;;12.75;;
40623;SDS011;26325;48.594;11.650;2024-03-08T11:44:59;14.30;;;12.95;;
40623;SDS011;26325;48.594;11.650;2024-03-08T11:47:25;13.60;;;12.30;;
40623;SDS011;26325;48.594;11.650;2024-03-08T11:49:51;13.43;;;12.13;;
40623;SDS011;26325;48.594;11.650;2024-03-08T11:52:19;13.30;;;12.10;;
40623;SDS011;26325;48.594;11.650;2024-03-08T11:54:54;13.85;;;12.45;;
40623;SDS011;26325;48.594;11.650;2024-03-08T11:57:22;13.52;;;12.18;;
40623;SDS011;26325;48.594;11.650;2024-03-08T11:59:52;13.02;;;11.82;;
40623;SDS011;26325;48.594;11.650;2024-03-08T12:02:19;13.63;;;12.32;;
40623;SDS011;26325;48.594;11.650;2024-03-08T12:04:45;14.60;;;13.13;;
40623;SDS011;26325;48.594;11.650;2024-03-08T12:07:13;14.68;;;13.27;;
40623;SDS011;26325;48.594;11.650;2024-03-08T12:09:42;14.07;;;12.68;;
40623;SDS011;26325;48.594;11.650;2024-03-08T12:12:12;13.52;;;12.32;;
40623;SDS011;26325;48.594;11.650;2024-03-08T12:14:38;14.50;;;13.20;;
40623;SDS011;26325;48.594;11.650;2024-03-08T12:17:07;14.70;;;13.18;;
40623;SDS011;26325;48.594;11.650;2024-03-08T12:19:35;13.73;;;12.55;;
40623;SDS011;26325;48.594;11.650;2024-03-08T12:22:09;13.30;;;12.20;;
40623;SDS011;26325;48.594;11.650;2024-03-08T12:24:35;13.75;;;12.52;;
40623;SDS011;26325;48.594;11.650;2024-03-08T12:27:19;14.77;;;13.40;;
40623;SDS011;26325;48.594;11.650;2024-03-08T12:29:45;13.70;;;12.52;;
40623;SDS011;26325;48.594;11.650;2024-03-08T12:32:12;13.07;;;11.98;;
40623;SDS011;26325;48.594;11.650;2024-03-08T12:34:40;13.63;;;12.43;;
40623;SDS011;26325;48.594;11.650;2024-03-08T12:37:08;13.43;;;12.23;;
40623;SDS011;26325;48.594;11.650;2024-03-08T12:39:40;14.38;;;12.98;;
40623;SDS011;26325;48.594;11.650;2024-03-08T12:42:06;14.35;;;13.13;;
40623;SDS011;26325;48.594;11.650;2024-03-08T12:44:34;12.63;;;11.43;;
40623;SDS011;26325;48.594;11.650;2024-03-08T12:47:06;12.30;;;11.30;;
40623;SDS011;26325;48.594;11.650;2024-03-08T12:49:37;13.30;;;12.05;;
40623;SDS011;26325;48.594;11.650;2024-03-08T12:52:09;13.73;;;12.43;;
40623;SDS011;26325;48.594;11.650;2024-03-08T12:54:35;12.75;;;11.50;;
40623;SDS011;26325;48.594;11.650;2024-03-08T12:57:01;12.50;;;11.40;;
40623;SDS011;26325;48.594;11.650;2024-03-08T12:59:28;12.38;;;11.38;;
40623;SDS011;26325;48.594;11.650;2024-03-08T13:01:57;13.35;;;12.15;;
40623;SDS011;26325;48.594;11.650;2024-03-08T13:04:25;13.00;;;11.80;;
40623;SDS011;26325;48.594;11.650;2024-03-08T13:06:52;12.40;;;11.30;;
40623;SDS011;26325;48.594;11.650;2024-03-08T13:09:20;12.57;;;11.48;;
40623;SDS011;26325;48.594;11.650;2024-03-08T13:11:48;12.13;;;11.07;;
40623;SDS011;26325;48.594;11.650;2024-03-08T13:14:14;11.90;;;10.80;;
40623;SDS011;26325;48.594;11.650;2024-03-08T13:16:40;12.80;;;11.70;;
40623;SDS011;26325;48.594;11.650;2024-03-08T13:19:08;11.57;;;10.57;;
40623;SDS011;26325;48.594;11.650;2024-03-08T13:21:34;12.15;;;11.05;;
40623;SDS011;26325;48.594;11.650;2024-03-08T13:24:00;11.65;;;10.65;;
40623;SDS011;26325;48.594;11.650;2024-03-08T13:26:26;12.40;;;11.40;;
40623;SDS011;26325;48.594;11.650;2024-03-08T13:28:58;11.18;;;10.27;;
40623;SDS011;26325;48.594;11.650;2024-03-08T13:31:25;11.13;;;10.23;;
40623;SDS011;26325;48.594;11.650;2024-03-08T13:33:52;11.65;;;10.65;;
40623;SDS011;26325;48.594;11.650;2024-03-08T13:36:23;11.52;;;10.52;;
40623;SDS011;26325;48.594;11.650;2024-03-08T13:38:54;12.18;;;11.18;;
40623;SDS011;26325;48.594;11.650;2024-03-08T13:41:19;11.55;;;10.55;;
40623;SDS011;26325;48.594;11.650;2024-03-08T13:43:47;11.60;;;10.63;;
40623;SDS011;26325;48.594;11.650;2024-03-08T13:46:17;11.60;;;10.40;;
40623;SDS011;26325;48.594;11.650;2024-03-08T13:48:44;11.00;;;10.10;;
40623;SDS011;26325;48.594;11.650;2024-03-08T13:51:12;11.00;;;10.10;;
40623;SDS011;26325;48.594;11.650;2024-03-08T13:53:41;10.63;;;9.73;;
40623;SDS011;26325;48.594;11.650;2024-03-08T13:56:08;10.45;;;9.55;;
40623;SDS011;26325;48.594;11.650;2024-03-08T13:58:36;10.40;;;9.38;;
40623;SDS011;26325;48.594;11.650;2024-03-08T14:01:03;9.80;;;9.00;;
40623;SDS011;26325;48.594;11.650;2024-03-08T14:03:37;10.82;;;9.93;;
40623;SDS011;26325;48.594;11.650;2024-03-08T14:06:07;11.55;;;10.35;;
40623;SDS011;26325;48.594;11.650;2024-03-08T14:08:33;10.82;;;9.85;;
40623;SDS011;26325;48.594;11.650;2024-03-08T14:10:58;10.00;;;9.10;;
40623;SDS011;26325;48.594;11.650;2024-03-08T14:13:24;10.48;;;9.48;;
40623;SDS011;26325;48.594;11.650;2024-03-08T14:15:50;9.25;;;8.35;;
40623;SDS011;26325;48.594;11.650;2024-03-08T14:18:17;9.38;;;8.48;;
40623;SDS011;26325;48.594;11.650;2024-03-08T14:20:42;9.15;;;8.30;;
40623;SDS011;26325;48.594;11.650;2024-03-08T14:23:09;8.90;;;8.10;;